Time;durP1;ratioP1;P1;durP2;ratioP2;P2;SDS_P1;SDS_P2;PMS_P1;PMS_P2;Temp;Humidity;BMP_temperature;BMP_pressure;BME280_temperature;BME280_humidity;BME280_pressure;Samples;Min_cycle;Max_cycle;Signal;HPM_P1;HPM_P2
2024/02/16 00:00:25;;;;;;;8.90;5.30;;;;;;;3.71;100.00;102204.50;2087158;28;20199;-63
2024/02/16 00:01:26;;;;;;;9.25;4.40;;;;;;;4.32;100.00;102305.41;2094377;28;20201;-63
2024/02/16 00:02:27;;;;;;;7.20;3.90;;;;;;;3.56;100.00;102180.56;2093435;28;20190;-63
2024/02/16 00:03:28;;;;;;;5.67;3.63;;;;;;;4.29;100.00;102303.38;2088583;28;20257;-63
2024/02/16 00:04:29;;;;;;;7.15;5.25;;;;;;;4.30;100.00;102304.97;2087828;28;20676;-63
2024/02/16 00:05:29;;;;;;;8.53;5.20;;;;;;;4.28;100.00;102306.47;2087496;28;20195;-63
2024/02/16 00:06:30;;;;;;;8.30;5.27;;;;;;;4.27;100.00;102304.88;2086750;28;20211;-63
2024/02/16 00:07:31;;;;;;;8.85;5.60;;;;;;;4.23;100.00;102312.19;2087119;28;20228;-63
2024/02/16 00:08:34;;;;;;;9.03;5.57;;;;;;;4.06;100.00;102290.53;2086512;28;20225;-63
2024/02/16 00:09:34;;;;;;;8.32;5.50;;;;;;;4.23;100.00;102315.75;2087439;28;20185;-63
2024/02/16 00:10:35;;;;;;;10.73;6.23;;;;;;;4.21;100.00;102314.50;2087315;28;20187;-63
2024/02/16 00:11:36;;;;;;;7.73;4.30;;;;;;;4.04;100.00;102281.84;2087307;28;20267;-63
2024/02/16 00:12:38;;;;;;;11.00;5.43;;;;;;;4.23;100.00;102303.97;2087510;28;20364;-63
2024/02/16 00:13:38;;;;;;;6.63;3.83;;;;;;;4.22;100.00;102305.13;2086757;28;20247;-63
2024/02/16 00:14:39;;;;;;;8.60;4.27;;;;;;;4.21;100.00;102314.50;2087049;28;20658;-63
2024/02/16 00:15:40;;;;;;;6.23;3.60;;;;;;;3.16;100.00;102147.66;2086962;28;20732;-63
2024/02/16 00:16:40;;;;;;;5.93;4.13;;;;;;;4.04;100.00;102271.69;2088015;28;20264;-63
2024/02/16 00:17:41;;;;;;;12.27;4.60;;;;;;;4.23;100.00;102304.78;2086610;28;20194;-63
2024/02/16 00:18:41;;;;;;;8.93;5.20;;;;;;;4.21;100.00;102312.53;2087067;28;20256;-63
2024/02/16 00:19:42;;;;;;;8.77;5.73;;;;;;;4.20;100.00;102310.16;2087123;28;20301;-63
2024/02/16 00:20:43;;;;;;;7.17;5.20;;;;;;;4.17;100.00;102310.84;2086808;28;20650;-63
2024/02/16 00:21:43;;;;;;;12.97;6.03;;;;;;;4.19;100.00;102314.03;2087302;28;20581;-63
2024/02/16 00:22:44;;;;;;;7.97;3.90;;;;;;;4.21;100.00;102315.28;2088503;28;20674;-63
2024/02/16 00:23:45;;;;;;;8.37;5.17;;;;;;;3.42;100.00;102207.53;2087525;28;20213;-63
2024/02/16 00:24:45;;;;;;;7.50;4.10;;;;;;;4.14;100.00;102311.53;2087361;28;20696;-63
2024/02/16 00:25:47;;;;;;;5.80;3.60;;;;;;;4.14;100.00;102315.09;2086092;28;20588;-63
2024/02/16 00:26:47;;;;;;;7.72;3.90;;;;;;;4.11;100.00;102310.28;2086870;28;20191;-63
2024/02/16 00:27:48;;;;;;;6.40;3.53;;;;;;;3.23;100.00;102175.25;2087339;28;20181;-63
2024/02/16 00:28:49;;;;;;;6.73;4.03;;;;;;;4.07;100.00;102309.41;2088381;28;20186;-63
2024/02/16 00:29:50;;;;;;;6.70;4.07;;;;;;;4.05;100.00;102300.72;2086800;28;20191;-63
2024/02/16 00:30:50;;;;;;;8.47;4.47;;;;;;;3.71;100.00;102242.88;2087083;28;20215;-63
2024/02/16 00:31:51;;;;;;;9.43;4.23;;;;;;;3.94;100.00;102285.09;2094930;28;20200;-63
2024/02/16 00:32:52;;;;;;;6.47;3.83;;;;;;;4.05;100.00;102299.94;2094258;28;20254;-63
2024/02/16 00:33:53;;;;;;;7.63;3.90;;;;;;;4.05;100.00;102302.69;2086581;28;20399;-63
2024/02/16 00:34:53;;;;;;;7.20;4.47;;;;;;;4.03;100.00;102313.19;2088551;28;20646;-63
2024/02/16 00:35:54;;;;;;;9.20;4.83;;;;;;;4.02;100.00;102306.09;2086904;28;21387;-63
2024/02/16 00:36:55;;;;;;;12.60;6.17;;;;;;;3.06;100.00;102159.09;2087434;28;20269;-63
2024/02/16 00:37:56;;;;;;;9.55;5.88;;;;;;;3.59;100.00;102235.47;2086644;28;20198;-63
2024/02/16 00:38:57;;;;;;;7.13;4.20;;;;;;;4.02;100.00;102311.59;2086595;28;20204;-63
2024/02/16 00:39:58;;;;;;;7.30;5.15;;;;;;;3.97;100.00;102306.34;2086269;28;20212;-63
2024/02/16 00:40:58;;;;;;;11.17;6.20;;;;;;;3.88;100.00;102298.25;2087995;28;20992;-63
2024/02/16 00:41:59;;;;;;;6.80;4.00;;;;;;;3.94;100.00;102307.03;2087192;28;20202;-63
2024/02/16 00:42:59;;;;;;;10.33;6.10;;;;;;;3.95;100.00;102305.91;2086099;28;20671;-63
2024/02/16 00:44:00;;;;;;;11.83;6.87;;;;;;;3.95;100.00;102303.94;2087433;28;20231;-63
2024/02/16 00:45:00;;;;;;;10.70;4.90;;;;;;;3.98;100.00;102311.50;2086491;28;20243;-63
2024/02/16 00:46:01;;;;;;;10.33;4.90;;;;;;;3.96;100.00;102308.28;2087237;28;20180;-63
2024/02/16 00:47:01;;;;;;;7.43;4.40;;;;;;;3.96;100.00;102307.50;2088414;28;20179;-63
2024/02/16 00:48:03;;;;;;;9.20;4.17;;;;;;;3.15;100.00;102184.44;2086801;28;20272;-63
2024/02/16 00:49:04;;;;;;;7.70;5.20;;;;;;;3.13;100.00;102177.69;2087305;28;20193;-63
2024/02/16 00:50:08;;;;;;;8.57;5.30;;;;;;;3.98;100.00;102311.50;2086876;28;20207;-63
2024/02/16 00:51:09;;;;;;;8.85;4.57;;;;;;;4.01;100.00;102305.28;2086783;28;20200;-63
2024/02/16 00:52:10;;;;;;;6.53;3.90;;;;;;;4.02;100.00;102306.09;2086613;28;20219;-63
2024/02/16 00:53:10;;;;;;;7.95;4.32;;;;;;;3.97;100.00;102307.16;2088420;28;20265;-63
2024/02/16 00:54:11;;;;;;;8.23;4.33;;;;;;;3.84;100.00;102285.59;2087014;28;20187;-63
2024/02/16 00:55:12;;;;;;;9.77;4.90;;;;;;;3.94;100.00;102304.28;2087354;28;20264;-63
2024/02/16 00:56:13;;;;;;;6.65;4.45;;;;;;;3.94;100.00;102305.09;2087287;28;20196;-63
2024/02/16 00:57:14;;;;;;;6.37;4.70;;;;;;;3.97;100.00;102311.81;2087202;28;20651;-63
2024/02/16 00:58:14;;;;;;;10.53;6.50;;;;;;;3.38;100.00;102215.66;2086774;28;20651;-63
2024/02/16 00:59:15;;;;;;;9.50;5.77;;;;;;;3.59;100.00;102246.44;2088619;28;20680;-63
2024/02/16 01:00:16;;;;;;;10.93;5.10;;;;;;;3.99;100.00;102298.56;2087323;28;20198;-63
2024/02/16 01:01:16;;;;;;;11.90;5.73;;;;;;;3.98;100.00;102308.75;2086480;28;20578;-63
2024/02/16 01:02:16;;;;;;;12.97;6.57;;;;;;;3.98;100.00;102306.00;2086797;28;20532;-63
2024/02/16 01:03:17;;;;;;;15.70;4.77;;;;;;;3.96;100.00;102305.53;2086911;28;20203;-63
2024/02/16 01:04:18;;;;;;;13.73;6.20;;;;;;;3.82;100.00;102274.16;2087129;28;20276;-63
2024/02/16 01:05:19;;;;;;;10.95;5.28;;;;;;;3.95;100.00;102300.41;2088412;28;20181;-63
2024/02/16 01:06:20;;;;;;;11.38;5.20;;;;;;;3.93;100.00;102306.25;2086819;28;20661;-63
2024/02/16 01:07:20;;;;;;;20.17;6.73;;;;;;;3.91;100.00;102297.53;2087337;28;20615;-63
2024/02/16 01:08:23;;;;;;;14.80;4.70;;;;;;;3.92;100.00;102301.09;2086804;28;20371;-63
2024/02/16 01:09:23;;;;;;;12.13;6.25;;;;;;;3.87;100.00;102288.44;2086341;28;20680;-63
2024/02/16 01:10:24;;;;;;;14.13;7.80;;;;;;;3.90;100.00;102303.41;2087020;28;20569;-63
2024/02/16 01:11:24;;;;;;;11.03;4.93;;;;;;;3.88;100.00;102306.47;2087816;28;20573;-63
2024/02/16 01:12:25;;;;;;;7.50;4.73;;;;;;;3.89;100.00;102304.53;2087550;28;20635;-63
2024/02/16 01:13:25;;;;;;;22.93;5.30;;;;;;;3.89;100.00;102305.34;2086919;28;20556;-63
2024/02/16 01:14:26;;;;;;;13.17;4.90;;;;;;;3.91;100.00;102311.25;2088097;28;20197;-63
2024/02/16 01:15:26;;;;;;;19.03;6.33;;;;;;;3.88;100.00;102303.75;2088125;28;20213;-63
2024/02/16 01:16:27;;;;;;;14.43;6.40;;;;;;;3.49;100.00;102235.97;2088324;28;20186;-63
2024/02/16 01:17:27;;;;;;;14.77;6.37;;;;;;;3.86;100.00;102303.28;2089976;28;20209;-63
2024/02/16 01:18:29;;;;;;;11.77;6.47;;;;;;;3.82;100.00;102310.63;2088973;28;20264;-63
2024/02/16 01:19:30;;;;;;;15.45;6.13;;;;;;;3.48;100.00;102242.59;2089138;28;20212;-63
2024/02/16 01:20:31;;;;;;;12.50;5.63;;;;;;;3.81;100.00;102303.53;2088230;28;20202;-63
2024/02/16 01:21:31;;;;;;;8.68;3.72;;;;;;;3.57;100.00;102248.75;2088303;28;20626;-63
2024/02/16 01:22:32;;;;;;;20.13;4.57;;;;;;;3.11;100.00;102186.25;2088410;28;20577;-63
2024/02/16 01:23:32;;;;;;;9.73;5.00;;;;;;;3.67;100.00;102275.69;2089227;28;20671;-63
2024/02/16 01:24:33;;;;;;;9.63;4.50;;;;;;;3.82;100.00;102301.56;2089389;28;20611;-63
2024/02/16 01:25:33;;;;;;;12.00;6.20;;;;;;;3.43;100.00;102242.00;2088450;28;20197;-63
2024/02/16 01:26:34;;;;;;;12.87;6.60;;;;;;;3.64;100.00;102287.34;2088534;28;20186;-63
2024/02/16 01:27:35;;;;;;;9.33;6.37;;;;;;;3.73;100.00;102298.97;2087318;28;20198;-63
2024/02/16 01:28:36;;;;;;;12.70;6.15;;;;;;;3.77;100.00;102305.38;2088402;28;20185;-63
2024/02/16 01:29:36;;;;;;;10.43;4.23;;;;;;;3.56;100.00;102277.31;2089245;28;20181;-63
2024/02/16 01:30:37;;;;;;;12.50;5.10;;;;;;;3.64;100.00;102281.84;2088469;28;20193;-63
2024/02/16 01:31:38;;;;;;;11.23;6.63;;;;;;;3.71;100.00;102298.53;2088490;28;20643;-63
2024/02/16 01:32:38;;;;;;;10.97;5.30;;;;;;;3.71;100.00;102303.22;2088212;28;20293;-63
2024/02/16 01:33:39;;;;;;;9.70;4.90;;;;;;;3.40;100.00;102246.28;2088668;28;20203;-63
2024/02/16 01:34:40;;;;;;;7.77;4.63;;;;;;;3.51;100.00;102265.78;2088559;28;20181;-63
2024/02/16 01:35:40;;;;;;;10.67;6.53;;;;;;;3.70;100.00;102291.44;2089554;28;20192;-63
2024/02/16 01:36:41;;;;;;;13.83;6.93;;;;;;;3.64;100.00;102292.81;2088342;28;20256;-63
2024/02/16 01:37:42;;;;;;;9.70;5.13;;;;;;;3.30;100.00;102232.22;2088718;28;20221;-63
2024/02/16 01:38:42;;;;;;;14.25;7.10;;;;;;;3.60;100.00;102297.38;2088917;28;20189;-63
2024/02/16 01:39:44;;;;;;;9.60;5.17;;;;;;;3.59;100.00;102290.31;2088318;28;20196;-63
2024/02/16 01:40:44;;;;;;;9.73;5.65;;;;;;;3.58;100.00;102294.19;2087487;28;20185;-63
2024/02/16 01:41:45;;;;;;;13.13;5.93;;;;;;;3.51;100.00;102283.03;2088845;28;20214;-63
2024/02/16 01:42:47;;;;;;;12.73;7.10;;;;;;;2.38;100.00;102119.00;2089227;28;20719;-63
2024/02/16 01:43:48;;;;;;;8.55;5.60;;;;;;;2.53;100.00;102140.19;2088700;28;20567;-63
2024/02/16 01:44:48;;;;;;;12.83;6.47;;;;;;;3.46;100.00;102294.22;2088438;28;20208;-63
2024/02/16 01:45:49;;;;;;;9.27;5.13;;;;;;;2.74;100.00;102197.56;2088890;28;20575;-63
2024/02/16 01:46:49;;;;;;;10.30;5.60;;;;;;;3.31;100.00;102294.09;2088331;28;20562;-63
2024/02/16 01:47:51;;;;;;;10.03;4.50;;;;;;;3.33;100.00;102281.66;2089123;28;20185;-63
2024/02/16 01:48:52;;;;;;;11.20;5.93;;;;;;;3.35;100.00;102289.53;2089470;28;20209;-63
2024/02/16 01:49:53;;;;;;;12.07;4.75;;;;;;;3.38;100.00;102286.91;2087845;28;20291;-63
2024/02/16 01:50:54;;;;;;;11.80;4.63;;;;;;;3.38;100.00;102281.44;2087556;28;20204;-63
2024/02/16 01:51:54;;;;;;;7.13;3.92;;;;;;;3.39;100.00;102288.50;2088325;28;20205;-63
2024/02/16 01:52:55;;;;;;;10.77;6.07;;;;;;;3.37;100.00;102281.78;2088335;28;20185;-63
2024/02/16 01:53:56;;;;;;;10.43;5.90;;;;;;;3.30;100.00;102276.06;2087312;28;20976;-63
2024/02/16 01:54:58;;;;;;;11.03;4.77;;;;;;;2.92;100.00;102231.81;2088931;28;20191;-63
2024/02/16 01:55:59;;;;;;;12.38;5.63;;;;;;;3.31;100.00;102281.22;2088315;28;20192;-63
2024/02/16 01:57:01;;;;;;;6.17;3.43;;;;;;;3.30;100.00;102276.88;2087558;28;20199;-63
2024/02/16 01:58:03;;;;;;;9.00;3.75;;;;;;;3.28;100.00;102283.84;2085839;28;20185;-63
2024/02/16 01:59:03;;;;;;;7.10;4.05;;;;;;;3.14;100.00;102278.69;2088474;28;20184;-63
2024/02/16 02:00:07;;;;;;;10.27;5.53;;;;;;;2.59;100.00;102190.03;2088659;28;20173;-63
2024/02/16 02:01:07;;;;;;;7.38;3.45;;;;;;;3.20;100.00;102284.75;2089412;28;20176;-63
2024/02/16 02:02:08;;;;;;;7.87;3.67;;;;;;;3.23;100.00;102281.34;2088158;28;20666;-63
2024/02/16 02:03:09;;;;;;;7.87;3.83;;;;;;;3.23;100.00;102284.84;2088800;28;20184;-63
2024/02/16 02:04:10;;;;;;;10.35;5.25;;;;;;;3.27;100.00;102291.25;2088071;28;21122;-63
2024/02/16 02:05:11;;;;;;;8.02;3.33;;;;;;;3.16;100.00;102254.50;2095724;28;20689;-63
2024/02/16 02:06:12;;;;;;;8.50;3.85;;;;;;;2.25;100.00;102114.63;2095619;28;20748;-63
2024/02/16 02:07:14;;;;;;;9.90;5.23;;;;;;;3.32;100.00;102282.00;2089560;28;20564;-63
2024/02/16 02:08:14;;;;;;;7.90;4.55;;;;;;;3.32;100.00;102279.25;2088795;28;20211;-63
2024/02/16 02:09:15;;;;;;;7.83;4.50;;;;;;;3.23;100.00;102271.16;2088131;28;20191;-63
2024/02/16 02:10:15;;;;;;;5.23;3.17;;;;;;;3.30;100.00;102287.03;2087376;28;20706;-63
2024/02/16 02:11:16;;;;;;;6.80;4.30;;;;;;;3.23;100.00;102278.59;2088367;28;20682;-63
2024/02/16 02:12:16;;;;;;;7.97;3.47;;;;;;;3.32;100.00;102284.75;2087959;28;20226;-63
2024/02/16 02:13:19;;;;;;;5.90;2.90;;;;;;;3.33;100.00;102284.41;2089410;28;20650;-63
2024/02/16 02:14:22;;;;;;;7.07;3.13;;;;;;;3.33;100.00;102283.63;2088263;28;20601;-63
2024/02/16 02:15:23;;;;;;;8.68;3.13;;;;;;;3.32;100.00;102288.28;2088031;28;20184;-63
2024/02/16 02:16:26;;;;;;;6.93;2.70;;;;;;;3.29;100.00;102285.44;2088432;28;20632;-63
2024/02/16 02:17:27;;;;;;;4.60;2.70;;;;;;;3.30;100.00;102290.59;2088149;28;20192;-63
2024/02/16 02:18:27;;;;;;;6.10;3.23;;;;;;;3.25;100.00;102285.34;2087019;28;20669;-63
2024/02/16 02:19:29;;;;;;;7.30;4.00;;;;;;;3.29;100.00;102294.44;2088144;28;20180;-63
2024/02/16 02:20:29;;;;;;;8.65;4.70;;;;;;;3.27;100.00;102290.44;2088731;28;20178;-63
2024/02/16 02:21:30;;;;;;;7.40;4.53;;;;;;;3.26;100.00;102291.59;2088336;28;20217;-63
2024/02/16 02:22:30;;;;;;;9.00;3.50;;;;;;;3.21;100.00;102295.38;2088480;28;20265;-63
2024/02/16 02:23:31;;;;;;;8.00;4.60;;;;;;;3.20;100.00;102293.78;2088344;28;20234;-63
2024/02/16 02:24:31;;;;;;;7.53;4.60;;;;;;;3.17;100.00;102286.22;2088015;28;20203;-63
2024/02/16 02:25:32;;;;;;;9.30;5.13;;;;;;;3.16;100.00;102292.88;2089112;28;20184;-63
2024/02/16 02:26:32;;;;;;;7.80;3.87;;;;;;;3.08;100.00;102298.44;2087645;28;20642;-63
2024/02/16 02:27:33;;;;;;;7.17;4.17;;;;;;;2.91;100.00;102290.44;2087889;28;20639;-63
2024/02/16 02:28:34;;;;;;;4.43;3.20;;;;;;;2.95;100.00;102299.56;2087648;28;20196;-63
2024/02/16 02:29:34;;;;;;;8.20;4.10;;;;;;;2.90;100.00;102300.59;2089388;28;20483;-63
2024/02/16 02:30:35;;;;;;;6.20;4.17;;;;;;;2.88;100.00;102302.84;2087318;28;20186;-63
2024/02/16 02:31:35;;;;;;;5.23;2.73;;;;;;;2.85;100.00;102298.09;2087774;28;20189;-63
2024/02/16 02:32:36;;;;;;;6.43;3.10;;;;;;;2.51;100.00;102251.94;2087138;28;20209;-63
2024/02/16 02:33:36;;;;;;;8.77;4.27;;;;;;;2.83;100.00;102283.13;2087707;28;20682;-63
2024/02/16 02:34:37;;;;;;;8.77;4.83;;;;;;;2.88;100.00;102296.59;2087872;28;20649;-63
2024/02/16 02:35:37;;;;;;;8.30;4.60;;;;;;;2.91;100.00;102299.44;2089372;28;20658;-63
2024/02/16 02:36:38;;;;;;;8.97;5.30;;;;;;;2.89;100.00;102299.00;2086814;28;20242;-63
2024/02/16 02:37:38;;;;;;;6.90;3.30;;;;;;;2.87;100.00;102300.47;2088212;28;20246;-63
2024/02/16 02:38:39;;;;;;;8.07;3.83;;;;;;;2.87;100.00;102292.28;2087941;28;20188;-63
2024/02/16 02:39:40;;;;;;;12.20;4.57;;;;;;;2.85;100.00;102297.28;2087103;28;20193;-63
2024/02/16 02:40:40;;;;;;;8.27;4.80;;;;;;;2.40;100.00;102228.06;2087363;28;20469;-63
2024/02/16 02:41:41;;;;;;;19.97;3.77;;;;;;;2.86;100.00;102301.59;2089329;28;20271;-63
2024/02/16 02:42:41;;;;;;;13.27;4.17;;;;;;;1.93;100.00;102155.69;2087939;28;20220;-63
2024/02/16 02:43:42;;;;;;;14.27;4.77;;;;;;;2.87;100.00;102305.97;2087762;28;20689;-63
2024/02/16 02:44:49;;;;;;;17.50;5.00;;;;;;;2.85;100.00;102305.47;2087821;28;20665;-63
2024/02/16 02:45:49;;;;;;;15.73;4.60;;;;;;;2.74;100.00;102275.03;2087428;28;20704;-63
2024/02/16 02:46:50;;;;;;;22.63;5.67;;;;;;;2.80;100.00;102300.22;2087545;28;20563;-63
2024/02/16 02:47:51;;;;;;;24.33;5.97;;;;;;;2.77;100.00;102317.34;2095423;28;20278;-63
2024/02/16 02:48:52;;;;;;;15.85;4.97;;;;;;;2.74;100.00;102305.13;2096346;28;20215;-63
2024/02/16 02:49:52;;;;;;;8.83;4.17;;;;;;;1.84;100.00;102150.31;2087414;28;20195;-63
2024/02/16 02:50:53;;;;;;;13.87;4.67;;;;;;;2.78;100.00;102303.31;2087603;28;20188;-63
2024/02/16 02:51:53;;;;;;;7.70;4.73;;;;;;;2.82;100.00;102311.66;2087457;28;20257;-63
2024/02/16 02:52:54;;;;;;;6.53;4.50;;;;;;;2.17;100.00;102194.84;2087300;28;20450;-63
2024/02/16 02:53:54;;;;;;;4.30;2.83;;;;;;;2.83;100.00;102314.03;2088330;28;20562;-63
2024/02/16 02:54:55;;;;;;;7.33;3.67;;;;;;;2.83;100.00;102308.56;2088561;28;20220;-63
2024/02/16 02:55:55;;;;;;;6.03;3.40;;;;;;;2.86;100.00;102301.59;2087636;28;20215;-63
2024/02/16 02:56:56;;;;;;;6.00;3.47;;;;;;;2.34;100.00;102224.75;2087962;28;20196;-63
2024/02/16 02:57:57;;;;;;;7.57;4.33;;;;;;;2.83;100.00;102305.03;2087461;28;20196;-63
2024/02/16 02:58:58;;;;;;;7.32;3.05;;;;;;;2.83;100.00;102311.28;2087023;28;20180;-63
2024/02/16 03:00:06;;;;;;;10.33;4.40;;;;;;;2.77;100.00;102300.94;2088578;28;20233;-63
2024/02/16 03:01:07;;;;;;;8.57;4.07;;;;;;;2.78;100.00;102308.00;2088832;28;20184;-63
2024/02/16 03:02:08;;;;;;;8.00;4.00;;;;;;;2.71;100.00;102294.84;2087312;28;20193;-63
2024/02/16 03:03:09;;;;;;;8.83;4.43;;;;;;;2.73;100.00;102305.47;2087914;28;20188;-63
2024/02/16 03:04:09;;;;;;;8.33;5.17;;;;;;;2.72;100.00;102309.34;2087553;28;20181;-63
2024/02/16 03:05:11;;;;;;;8.57;4.87;;;;;;;2.56;100.00;102298.22;2088048;28;20203;-63
2024/02/16 03:06:11;;;;;;;6.50;3.22;;;;;;;2.61;100.00;102299.94;2087520;28;20212;-63
2024/02/16 03:07:12;;;;;;;6.10;3.80;;;;;;;2.61;100.00;102316.38;2088302;28;20184;-63
2024/02/16 03:08:12;;;;;;;5.03;3.40;;;;;;;2.60;100.00;102312.84;2087389;28;20215;-63
2024/02/16 03:09:13;;;;;;;8.70;4.50;;;;;;;2.59;100.00;102311.25;2087432;28;20269;-63
2024/02/16 03:10:20;;;;;;;15.13;5.13;;;;;;;2.61;100.00;102314.44;2088041;28;20219;-63
2024/02/16 03:11:21;;;;;;;9.98;4.88;;;;;;;2.58;100.00;102306.91;2087723;28;20558;-63
2024/02/16 03:12:22;;;;;;;11.23;5.30;;;;;;;2.59;100.00;102315.91;2087371;28;20204;-63
2024/02/16 03:13:22;;;;;;;7.90;4.10;;;;;;;2.55;100.00;102315.81;2087244;28;20179;-63
2024/02/16 03:14:23;;;;;;;11.40;5.07;;;;;;;2.55;100.00;102312.25;2088254;28;20348;-63
2024/02/16 03:15:23;;;;;;;7.83;4.70;;;;;;;2.55;100.00;102309.50;2086659;28;20201;-63
2024/02/16 03:16:24;;;;;;;7.93;5.00;;;;;;;2.51;100.00;102309.41;2087191;28;20241;-63
2024/02/16 03:17:24;;;;;;;6.00;4.30;;;;;;;2.53;100.00;102315.34;2087701;28;20279;-63
2024/02/16 03:18:25;;;;;;;8.20;4.93;;;;;;;2.49;100.00;102305.41;2087468;28;20211;-63
2024/02/16 03:19:26;;;;;;;8.30;4.73;;;;;;;2.53;100.00;102311.81;2087105;28;20200;-63
2024/02/16 03:20:26;;;;;;;11.10;3.27;;;;;;;2.48;100.00;102307.34;2088703;28;20173;-63
2024/02/16 03:21:27;;;;;;;10.13;5.83;;;;;;;2.50;100.00;102317.94;2087313;28;20543;-63
2024/02/16 03:22:27;;;;;;;10.60;5.13;;;;;;;2.51;100.00;102317.59;2087544;28;20661;-63
2024/02/16 03:23:28;;;;;;;10.20;5.07;;;;;;;2.49;100.00;102316.34;2086958;28;20191;-63
2024/02/16 03:24:28;;;;;;;8.50;4.73;;;;;;;2.47;100.00;102322.16;2087458;28;20177;-63
2024/02/16 03:25:29;;;;;;;10.10;5.20;;;;;;;2.47;100.00;102318.63;2087476;28;20657;-63
2024/02/16 03:26:32;;;;;;;11.77;4.93;;;;;;;2.25;100.00;102310.78;2088536;28;20169;-63
2024/02/16 03:27:33;;;;;;;4.63;2.72;;;;;;;2.25;100.00;102295.16;2087201;28;20188;-63
2024/02/16 03:28:33;;;;;;;7.53;3.33;;;;;;;2.43;100.00;102313.03;2087690;28;20193;-63
2024/02/16 03:29:34;;;;;;;8.10;4.70;;;;;;;2.29;100.00;102293.38;2087276;28;20541;-63
2024/02/16 03:30:35;;;;;;;10.50;5.23;;;;;;;2.46;100.00;102314.28;2086957;28;20188;-63
2024/02/16 03:31:35;;;;;;;7.07;4.20;;;;;;;2.46;100.00;102312.34;2086446;28;20199;-63
2024/02/16 03:32:36;;;;;;;7.67;4.50;;;;;;;2.37;100.00;102300.69;2088659;28;20212;-63
2024/02/16 03:33:36;;;;;;;7.47;4.23;;;;;;;2.47;100.00;102319.41;2087317;28;20200;-63
2024/02/16 03:34:37;;;;;;;4.50;2.93;;;;;;;2.46;100.00;102317.03;2087358;28;20283;-63
2024/02/16 03:35:37;;;;;;;8.73;3.90;;;;;;;2.27;100.00;102287.41;2087805;28;20208;-63
2024/02/16 03:36:38;;;;;;;9.03;5.10;;;;;;;2.51;100.00;102323.06;2085558;28;20229;-63
2024/02/16 03:37:38;;;;;;;6.27;4.33;;;;;;;2.55;100.00;102320.47;2086223;28;20184;-63
2024/02/16 03:38:43;;;;;;;5.43;3.00;;;;;;;2.36;100.00;102292.81;2088653;28;20191;-63
2024/02/16 03:39:43;;;;;;;8.60;3.92;;;;;;;2.50;100.00;102318.75;2087143;28;20658;-63
2024/02/16 03:40:44;;;;;;;6.37;3.23;;;;;;;2.52;100.00;102316.47;2087182;28;20670;-63
2024/02/16 03:41:47;;;;;;;7.23;3.50;;;;;;;2.57;100.00;102321.72;2087484;28;20193;-63
2024/02/16 03:42:48;;;;;;;7.47;4.15;;;;;;;2.62;100.00;102320.72;2086850;28;20322;-63
2024/02/16 03:43:49;;;;;;;8.03;4.40;;;;;;;2.53;100.00;102312.63;2087385;28;20188;-63
2024/02/16 03:44:50;;;;;;;7.25;3.88;;;;;;;2.59;100.00;102326.88;2088814;28;20180;-63
2024/02/16 03:45:50;;;;;;;8.77;4.60;;;;;;;2.57;100.00;102329.16;2086952;28;20271;-63
2024/02/16 03:46:51;;;;;;;9.53;4.93;;;;;;;2.48;100.00;102321.03;2086889;28;20195;-63
2024/02/16 03:47:54;;;;;;;16.03;3.60;;;;;;;2.50;100.00;102328.88;2086911;28;20684;-63
2024/02/16 03:48:55;;;;;;;18.25;4.95;;;;;;;2.53;100.00;102328.22;2086700;28;20202;-63
2024/02/16 03:49:55;;;;;;;9.43;4.17;;;;;;;2.41;100.00;102309.03;2086324;28;20358;-63
2024/02/16 03:50:56;;;;;;;18.10;5.47;;;;;;;2.51;100.00;102327.78;2087389;28;20188;-63
2024/02/16 03:51:56;;;;;;;11.27;5.23;;;;;;;2.48;100.00;102331.16;2087618;28;20188;-63
2024/02/16 03:52:57;;;;;;;9.83;3.77;;;;;;;2.47;100.00;102335.81;2087332;28;20544;-63
2024/02/16 03:53:57;;;;;;;10.53;5.03;;;;;;;2.45;100.00;102329.09;2087320;28;20189;-63
2024/02/16 03:54:58;;;;;;;8.47;3.73;;;;;;;1.85;100.00;102233.91;2087010;28;20184;-63
2024/02/16 03:55:58;;;;;;;7.17;4.07;;;;;;;2.45;100.00;102331.81;2086819;28;20177;-63
2024/02/16 03:56:59;;;;;;;7.77;4.33;;;;;;;2.43;100.00;102334.94;2096273;28;20669;-63
2024/02/16 03:57:59;;;;;;;8.00;4.80;;;;;;;2.44;100.00;102341.19;2094616;28;20711;-63
2024/02/16 03:59:00;;;;;;;8.17;4.00;;;;;;;2.40;100.00;102334.78;2086990;28;20587;-63
2024/02/16 04:00:00;;;;;;;10.37;4.47;;;;;;;2.36;100.00;102340.13;2086945;28;20206;-63
2024/02/16 04:01:00;;;;;;;8.80;4.70;;;;;;;2.36;100.00;102336.59;2086198;28;20192;-63
2024/02/16 04:02:01;;;;;;;7.47;4.50;;;;;;;2.36;100.00;102339.34;2094565;28;20185;-63
2024/02/16 04:03:02;;;;;;;6.07;3.50;;;;;;;2.36;100.00;102333.88;2096265;28;20723;-63
2024/02/16 04:04:03;;;;;;;11.38;3.53;;;;;;;2.35;100.00;102333.06;2086954;28;20573;-63
2024/02/16 04:05:04;;;;;;;7.37;2.60;;;;;;;2.34;100.00;102336.94;2086569;28;20212;-63
2024/02/16 04:06:04;;;;;;;10.03;5.20;;;;;;;2.29;100.00;102339.06;2086241;28;20645;-63
2024/02/16 04:07:08;;;;;;;6.47;3.20;;;;;;;2.07;100.00;102323.00;2085588;28;20207;-63
2024/02/16 04:08:09;;;;;;;8.23;4.85;;;;;;;2.26;100.00;102337.00;2086402;28;20665;-63
2024/02/16 04:09:10;;;;;;;8.60;4.43;;;;;;;2.26;100.00;102337.78;2095016;28;20640;-63
2024/02/16 04:10:10;;;;;;;8.52;5.10;;;;;;;2.23;100.00;102334.94;2096053;28;20184;-63
2024/02/16 04:11:13;;;;;;;9.03;3.77;;;;;;;2.15;100.00;102341.25;2086695;28;20184;-63
2024/02/16 04:12:14;;;;;;;6.32;3.22;;;;;;;2.26;100.00;102340.53;2086670;28;20223;-63
2024/02/16 04:13:14;;;;;;;11.53;5.93;;;;;;;2.27;100.00;102339.38;2087158;28;20184;-63
2024/02/16 04:14:15;;;;;;;13.43;4.33;;;;;;;2.26;100.00;102339.75;2086770;28;20420;-63
2024/02/16 04:15:16;;;;;;;9.87;5.60;;;;;;;2.26;100.00;102343.25;2086810;28;20176;-63
2024/02/16 04:16:16;;;;;;;9.60;5.33;;;;;;;2.25;100.00;102335.38;2088134;28;20669;-63
2024/02/16 04:17:17;;;;;;;7.97;4.10;;;;;;;2.25;100.00;102341.66;2086798;28;20192;-63
2024/02/16 04:18:18;;;;;;;10.93;4.23;;;;;;;2.24;100.00;102342.00;2086262;28;20188;-63
2024/02/16 04:19:19;;;;;;;7.20;3.50;;;;;;;2.12;100.00;102331.81;2086916;28;20180;-63
2024/02/16 04:20:20;;;;;;;11.77;5.10;;;;;;;2.19;100.00;102345.75;2087041;28;20181;-63
2024/02/16 04:21:21;;;;;;;10.35;4.88;;;;;;;2.12;100.00;102342.75;2086479;28;20258;-63
2024/02/16 04:22:22;;;;;;;7.93;3.87;;;;;;;2.16;100.00;102342.88;2088424;28;20245;-63
2024/02/16 04:23:22;;;;;;;29.23;5.03;;;;;;;2.17;100.00;102345.25;2085869;28;20199;-63
2024/02/16 04:24:23;;;;;;;9.60;5.63;;;;;;;2.18;100.00;102346.88;2087276;28;20184;-63
2024/02/16 04:25:23;;;;;;;12.30;4.63;;;;;;;1.42;100.00;102221.72;2087066;28;20192;-63
2024/02/16 04:26:24;;;;;;;8.33;3.57;;;;;;;2.19;100.00;102345.75;2086430;28;20688;-63
2024/02/16 04:27:25;;;;;;;8.30;4.03;;;;;;;2.21;100.00;102345.41;2086844;28;20172;-63
2024/02/16 04:28:25;;;;;;;14.80;4.30;;;;;;;2.23;100.00;102349.41;2088296;28;20183;-63
2024/02/16 04:29:26;;;;;;;11.57;4.70;;;;;;;2.25;100.00;102340.84;2086908;28;20253;-63
2024/02/16 04:30:26;;;;;;;8.70;5.47;;;;;;;2.24;100.00;102350.19;2085976;28;20188;-63
2024/02/16 04:31:27;;;;;;;8.70;5.63;;;;;;;2.24;100.00;102345.53;2087124;28;20757;-63
2024/02/16 04:32:27;;;;;;;9.60;5.17;;;;;;;2.20;100.00;102341.88;2086588;28;20205;-63
2024/02/16 04:33:28;;;;;;;8.13;4.83;;;;;;;1.60;100.00;102261.47;2087140;28;20188;-63
2024/02/16 04:34:28;;;;;;;12.87;4.57;;;;;;;2.12;100.00;102350.97;2088200;28;20283;-63
2024/02/16 04:35:29;;;;;;;6.77;3.80;;;;;;;2.08;100.00;102344.56;2086832;28;20202;-63
2024/02/16 04:36:29;;;;;;;8.53;3.63;;;;;;;2.05;100.00;102350.69;2085707;28;20222;-63
2024/02/16 04:37:30;;;;;;;9.50;4.10;;;;;;;2.01;100.00;102338.00;2086302;28;20196;-63
2024/02/16 04:38:30;;;;;;;8.37;4.37;;;;;;;1.98;100.00;102349.59;2086518;28;20270;-63
2024/02/16 04:39:31;;;;;;;4.33;2.97;;;;;;;1.94;100.00;102356.88;2087012;28;20172;-63
2024/02/16 04:40:37;;;;;;;8.67;3.80;;;;;;;1.92;100.00;102343.56;2088132;28;20180;-63
2024/02/16 04:41:38;;;;;;;4.53;2.63;;;;;;;1.84;100.00;102335.38;2087013;28;20184;-63